createdAt,value
2022-10-18T00:00:19.295Z,3.70
2022-10-18T00:02:46.186Z,3.63
2022-10-18T00:05:12.973Z,3.42
2022-10-18T00:07:39.792Z,3.40
2022-10-18T00:10:07.288Z,3.60
2022-10-18T00:12:35.705Z,3.00
2022-10-18T00:15:03.470Z,3.00
2022-10-18T00:17:30.564Z,3.00
2022-10-18T00:19:57.605Z,3.13
2022-10-18T00:22:25.445Z,2.90
2022-10-18T00:24:52.553Z,3.35
2022-10-18T00:27:19.366Z,3.20
2022-10-18T00:29:46.344Z,3.30
2022-10-18T00:32:13.264Z,2.63
2022-10-18T00:34:40.414Z,3.17
2022-10-18T00:37:07.524Z,3.10
2022-10-18T00:39:34.714Z,2.92
2022-10-18T00:42:01.664Z,3.22
2022-10-18T00:44:28.417Z,3.05
2022-10-18T00:47:00.650Z,2.85
2022-10-18T00:49:34.410Z,2.85
2022-10-18T00:52:17.521Z,2.90
2022-10-18T00:54:46.336Z,3.70
2022-10-18T00:57:14.374Z,3.17
2022-10-18T00:59:42.928Z,2.90
2022-10-18T01:02:10.354Z,3.30
2022-10-18T01:04:37.405Z,3.42
2022-10-18T01:07:19.138Z,3.00
2022-10-18T01:09:58.814Z,3.35
2022-10-18T01:13:02.809Z,3.47
2022-10-18T01:15:58.061Z,3.05
2022-10-18T01:18:43.035Z,3.63
2022-10-18T01:21:17.492Z,3.30
2022-10-18T01:23:59.650Z,3.63
2022-10-18T01:26:41.625Z,2.90
2022-10-18T01:29:59.479Z,3.03
2022-10-18T01:32:35.016Z,3.28
2022-10-18T01:35:08.110Z,3.17
2022-10-18T01:37:36.603Z,3.30
2022-10-18T01:40:06.817Z,3.20
2022-10-18T01:42:34.737Z,3.03
2022-10-18T01:45:03.917Z,3.22
2022-10-18T01:47:31.327Z,3.00
2022-10-18T01:50:00.754Z,3.50
2022-10-18T01:52:27.795Z,3.05
2022-10-18T01:54:56.010Z,3.22
2022-10-18T01:57:41.229Z,3.15
2022-10-18T02:00:16.765Z,3.05
2022-10-18T02:02:48.350Z,3.53
2022-10-18T02:05:47.601Z,3.25
2022-10-18T02:08:42.879Z,3.22
2022-10-18T02:11:13.326Z,3.45
2022-10-18T02:13:44.998Z,3.35
2022-10-18T02:16:16.457Z,3.20
2022-10-18T02:18:52.043Z,3.20
2022-10-18T02:21:21.295Z,3.40
2022-10-18T02:23:49.402Z,3.60
2022-10-18T02:26:16.980Z,3.33
2022-10-18T02:28:44.855Z,3.40
2022-10-18T02:31:45.812Z,3.25
2022-10-18T02:34:36.587Z,3.88
2022-10-18T02:37:04.468Z,3.63
2022-10-18T02:39:35.826Z,3.33
2022-10-18T02:42:07.063Z,3.88
2022-10-18T02:44:34.579Z,3.67
2022-10-18T02:47:01.878Z,3.25
2022-10-18T02:49:28.777Z,3.28
2022-10-18T02:51:55.803Z,3.30
2022-10-18T02:54:23.440Z,3.88
2022-10-18T02:56:50.395Z,3.45
2022-10-18T02:59:17.286Z,3.33
2022-10-18T03:01:44.273Z,3.70
2022-10-18T03:04:11.089Z,3.35
2022-10-18T03:06:38.210Z,4.15
2022-10-18T03:09:06.401Z,4.05
2022-10-18T03:11:33.571Z,3.38
2022-10-18T03:14:00.425Z,3.90
2022-10-18T03:16:27.366Z,3.22
2022-10-18T03:18:54.157Z,3.55
2022-10-18T03:21:21.063Z,3.50
2022-10-18T03:23:47.898Z,4.13
2022-10-18T03:26:14.702Z,3.95
2022-10-18T03:28:41.536Z,3.88
2022-10-18T03:31:08.638Z,3.35
2022-10-18T03:33:36.123Z,3.97
2022-10-18T03:36:03.068Z,3.80
2022-10-18T03:38:29.903Z,3.90
2022-10-18T03:40:56.741Z,4.13
2022-10-18T03:43:23.572Z,4.65
2022-10-18T03:45:50.958Z,3.95
2022-10-18T03:48:17.758Z,3.65
2022-10-18T03:50:44.636Z,4.10
2022-10-18T03:53:11.679Z,4.13
2022-10-18T03:55:38.749Z,4.22
2022-10-18T03:58:05.577Z,4.53
2022-10-18T04:00:33.337Z,4.95
2022-10-18T04:03:00.555Z,4.03
2022-10-18T04:05:30.653Z,4.38
2022-10-18T04:07:58.005Z,3.90
2022-10-18T04:10:24.779Z,3.85
2022-10-18T04:12:51.632Z,4.10
2022-10-18T04:15:18.610Z,3.75
2022-10-18T04:17:45.470Z,3.75
2022-10-18T04:20:12.648Z,3.38
2022-10-18T04:22:39.488Z,3.72
2022-10-18T04:25:06.572Z,3.90
2022-10-18T04:27:33.608Z,4.20
2022-10-18T04:30:00.700Z,4.03
2022-10-18T04:32:29.450Z,4.13
2022-10-18T04:34:56.267Z,4.90
2022-10-18T04:37:23.407Z,3.75
2022-10-18T04:39:53.425Z,4.35
2022-10-18T04:42:22.097Z,4.47
2022-10-18T04:44:49.391Z,3.97
2022-10-18T04:47:16.958Z,4.20
2022-10-18T04:49:44.032Z,4.30
2022-10-18T04:52:11.280Z,4.35
2022-10-18T04:54:38.250Z,4.80
2022-10-18T04:57:05.166Z,5.35
2022-10-18T04:59:32.025Z,4.63
2022-10-18T05:01:58.981Z,4.50
2022-10-18T05:04:25.931Z,4.43
2022-10-18T05:06:52.743Z,3.90
2022-10-18T05:09:19.603Z,3.92
2022-10-18T05:11:46.556Z,5.97
2022-10-18T05:14:13.381Z,3.88
2022-10-18T05:16:40.167Z,4.03
2022-10-18T05:19:07.081Z,4.15
2022-10-18T05:21:33.956Z,3.90
2022-10-18T05:24:00.904Z,5.95
2022-10-18T05:26:27.862Z,3.75
2022-10-18T05:28:54.988Z,5.30
2022-10-18T05:31:22.036Z,4.20
2022-10-18T05:33:48.861Z,4.38
2022-10-18T05:36:15.823Z,3.80
2022-10-18T05:38:44.078Z,3.72
2022-10-18T05:41:11.731Z,3.95
2022-10-18T05:43:39.226Z,3.67
2022-10-18T05:46:11.886Z,3.83
2022-10-18T05:48:40.719Z,3.67
2022-10-18T05:51:07.682Z,3.70
2022-10-18T05:53:37.037Z,4.07
2022-10-18T05:56:05.732Z,3.85
2022-10-18T05:58:32.674Z,3.28
2022-10-18T06:01:04.695Z,3.85
2022-10-18T06:03:32.432Z,3.70
2022-10-18T06:06:04.427Z,4.95
2022-10-18T06:08:31.702Z,4.18
2022-10-18T06:10:58.952Z,3.72
2022-10-18T06:13:26.032Z,3.08
2022-10-18T06:15:57.228Z,4.50
2022-10-18T06:18:24.183Z,4.32
2022-10-18T06:20:57.002Z,4.93
2022-10-18T06:23:23.913Z,3.80
2022-10-18T06:25:50.731Z,3.65
2022-10-18T06:28:18.609Z,4.05
2022-10-18T06:30:45.448Z,3.40
2022-10-18T06:33:12.313Z,4.05
2022-10-18T06:35:39.095Z,3.50
2022-10-18T06:38:06.380Z,3.88
2022-10-18T06:40:38.055Z,3.40
2022-10-18T06:43:20.723Z,3.20
2022-10-18T06:45:48.561Z,3.50
2022-10-18T06:48:15.844Z,2.90
2022-10-18T06:50:43.004Z,3.80
2022-10-18T06:53:09.942Z,3.28
2022-10-18T06:55:36.734Z,3.38
2022-10-18T06:58:03.596Z,2.90
2022-10-18T07:00:30.413Z,3.45
2022-10-18T07:02:58.402Z,3.33
2022-10-18T07:05:25.456Z,3.65
2022-10-18T07:07:55.656Z,3.13
2022-10-18T07:10:25.467Z,3.55
2022-10-18T07:12:59.201Z,3.47
2022-10-18T07:15:38.668Z,3.13
2022-10-18T07:18:05.766Z,3.25
2022-10-18T07:20:32.581Z,3.20
2022-10-18T07:22:59.469Z,2.88
2022-10-18T07:25:28.484Z,3.22
2022-10-18T07:27:57.575Z,5.22
2022-10-18T07:30:24.418Z,3.65
2022-10-18T07:32:52.016Z,4.07
2022-10-18T07:35:18.948Z,4.47
2022-10-18T07:37:45.761Z,3.22
2022-10-18T07:40:13.147Z,2.83
2022-10-18T07:42:39.939Z,2.97
2022-10-18T07:45:07.115Z,2.28
2022-10-18T07:47:35.243Z,2.25
2022-10-18T07:50:02.462Z,2.67
2022-10-18T07:52:29.245Z,2.70
2022-10-18T07:54:56.049Z,2.85
2022-10-18T07:57:23.532Z,2.53
2022-10-18T07:59:56.387Z,2.13
2022-10-18T08:02:24.231Z,2.33
2022-10-18T08:04:51.116Z,2.28
2022-10-18T08:07:17.972Z,1.83
2022-10-18T08:09:44.807Z,2.40
2022-10-18T08:12:11.649Z,2.13
2022-10-18T08:14:38.648Z,2.80
2022-10-18T08:17:05.572Z,1.80
2022-10-18T08:19:32.517Z,2.80
2022-10-18T08:21:59.386Z,2.00
2022-10-18T08:24:26.309Z,2.10
2022-10-18T08:26:53.288Z,2.22
2022-10-18T08:29:25.872Z,1.70
2022-10-18T08:31:53.622Z,2.05
2022-10-18T08:34:20.563Z,1.70
2022-10-18T08:36:47.349Z,1.55
2022-10-18T08:39:14.218Z,1.95
2022-10-18T08:42:16.193Z,1.80
2022-10-18T08:44:48.274Z,1.67
2022-10-18T08:47:25.800Z,1.77
2022-10-18T08:50:02.600Z,1.75
2022-10-18T08:52:53.598Z,1.50
2022-10-18T08:55:20.353Z,1.40
2022-10-18T08:57:48.591Z,1.45
2022-10-18T09:00:29.557Z,1.60
2022-10-18T09:03:18.214Z,1.60
2022-10-18T09:06:13.097Z,1.60
2022-10-18T09:09:17.377Z,1.63
2022-10-18T09:11:44.248Z,1.58
2022-10-18T09:14:29.064Z,1.80
2022-10-18T09:17:01.747Z,1.73
2022-10-18T09:19:40.577Z,1.75
2022-10-18T09:22:18.211Z,1.73
2022-10-18T09:24:53.763Z,1.40
2022-10-18T09:27:28.922Z,1.38
2022-10-18T09:30:28.504Z,1.75
2022-10-18T09:33:26.128Z,1.60
2022-10-18T09:35:58.303Z,1.65
2022-10-18T09:38:31.076Z,2.30
2022-10-18T09:41:19.376Z,1.83
2022-10-18T09:43:58.674Z,1.73
2022-10-18T09:46:31.315Z,1.50
2022-10-18T09:49:27.351Z,1.58
2022-10-18T09:51:55.430Z,1.65
2022-10-18T09:54:28.162Z,1.50
2022-10-18T09:57:12.105Z,1.42
2022-10-18T09:59:48.052Z,1.50
2022-10-18T10:02:23.306Z,1.25
2022-10-18T10:04:51.818Z,1.48
2022-10-18T10:07:28.708Z,1.38
2022-10-18T10:10:04.998Z,1.50
2022-10-18T10:12:33.014Z,1.60
2022-10-18T10:15:29.546Z,1.27
2022-10-18T10:18:07.143Z,1.27
2022-10-18T10:20:42.241Z,1.77
2022-10-18T10:23:28.529Z,1.33
2022-10-18T10:26:20.469Z,1.50
2022-10-18T10:28:49.097Z,1.33
2022-10-18T10:31:19.138Z,1.30
2022-10-18T10:33:47.694Z,1.42
2022-10-18T10:36:21.321Z,1.38
2022-10-18T10:39:13.070Z,1.40
2022-10-18T10:41:41.565Z,1.20
2022-10-18T10:44:20.332Z,1.20
2022-10-18T10:46:49.698Z,1.20
2022-10-18T10:49:39.634Z,1.30
2022-10-18T10:52:08.826Z,1.20
2022-10-18T10:54:52.143Z,1.00
2022-10-18T10:57:28.000Z,1.50
2022-10-18T11:00:01.811Z,1.30
2022-10-18T11:02:34.977Z,1.35
2022-10-18T11:05:29.436Z,1.27
2022-10-18T11:08:01.532Z,1.50
2022-10-18T11:10:32.835Z,1.50
2022-10-18T11:13:32.800Z,1.15
2022-10-18T11:16:14.298Z,1.20
2022-10-18T11:18:46.771Z,1.20
2022-10-18T11:21:19.043Z,1.10
2022-10-18T11:23:46.503Z,1.15
2022-10-18T11:26:13.322Z,1.20
2022-10-18T11:28:43.083Z,1.02
2022-10-18T11:31:34.760Z,1.25
2022-10-18T11:34:09.814Z,2.45
2022-10-18T11:37:28.197Z,1.20
2022-10-18T11:40:16.070Z,1.30
2022-10-18T11:43:12.222Z,1.20
2022-10-18T11:45:44.867Z,1.20
2022-10-18T11:48:39.636Z,1.20
2022-10-18T11:51:09.268Z,1.48
2022-10-18T11:54:11.518Z,1.25
2022-10-18T11:56:47.112Z,1.30
2022-10-18T11:59:19.752Z,1.10
2022-10-18T12:02:14.764Z,1.20
2022-10-18T12:04:59.852Z,1.40
2022-10-18T12:07:40.922Z,1.55
2022-10-18T12:10:19.486Z,1.08
2022-10-18T12:12:58.521Z,1.20
2022-10-18T12:15:28.776Z,1.25
2022-10-18T12:18:03.448Z,1.50
2022-10-18T12:20:35.534Z,1.40
2022-10-18T12:23:57.178Z,1.40
2022-10-18T12:26:25.740Z,1.50
2022-10-18T12:29:20.460Z,1.50
2022-10-18T12:31:59.470Z,1.40
2022-10-18T12:34:31.975Z,1.35
2022-10-18T12:37:14.882Z,1.30
2022-10-18T12:40:05.548Z,1.25
2022-10-18T12:42:40.769Z,1.40
2022-10-18T12:45:13.427Z,1.67
2022-10-18T12:47:40.674Z,1.40
2022-10-18T12:50:22.273Z,1.25
2022-10-18T12:53:22.789Z,1.40
2022-10-18T12:55:51.860Z,1.60
2022-10-18T12:58:26.247Z,1.40
2022-10-18T13:00:58.367Z,1.35
2022-10-18T13:03:25.193Z,1.45
2022-10-18T13:05:56.842Z,1.40
2022-10-18T13:08:38.060Z,1.40
2022-10-18T13:11:10.817Z,1.55
2022-10-18T13:13:59.680Z,1.20
2022-10-18T13:16:50.751Z,1.45
2022-10-18T13:19:32.334Z,1.40
2022-10-18T13:22:28.532Z,1.80
2022-10-18T13:25:11.201Z,1.45
2022-10-18T13:27:37.957Z,1.80
2022-10-18T13:30:33.573Z,1.48
2022-10-18T13:33:18.974Z,1.50
2022-10-18T13:35:57.721Z,1.73
2022-10-18T13:38:30.611Z,1.35
2022-10-18T13:41:12.848Z,1.45
2022-10-18T13:44:07.284Z,1.60
2022-10-18T13:46:34.131Z,1.50
2022-10-18T13:49:44.547Z,1.60
2022-10-18T13:52:23.473Z,1.67
2022-10-18T13:55:27.918Z,1.50
2022-10-18T13:58:04.063Z,1.92
2022-10-18T14:00:58.750Z,1.40
2022-10-18T14:03:56.175Z,2.08
2022-10-18T14:06:38.859Z,1.67
2022-10-18T14:09:26.315Z,2.30
2022-10-18T14:12:17.223Z,1.73
2022-10-18T14:14:48.585Z,2.10
2022-10-18T14:17:40.855Z,1.80
2022-10-18T14:20:27.341Z,1.90
2022-10-18T14:23:29.013Z,1.60
2022-10-18T14:26:08.927Z,2.42
2022-10-18T14:28:54.969Z,2.10
2022-10-18T14:31:22.694Z,1.80
2022-10-18T14:33:57.681Z,1.50
2022-10-18T14:36:36.276Z,1.73
2022-10-18T14:39:06.095Z,1.70
2022-10-18T14:41:35.682Z,1.50
2022-10-18T14:44:11.693Z,2.83
2022-10-18T14:46:58.409Z,2.50
2022-10-18T14:49:25.877Z,2.17
2022-10-18T14:51:56.384Z,2.38
2022-10-18T14:54:32.145Z,3.03
2022-10-18T14:57:05.200Z,2.55
2022-10-18T14:59:57.292Z,2.22
2022-10-18T15:02:32.404Z,4.80
2022-10-18T15:05:07.761Z,4.97
2022-10-18T15:07:36.114Z,6.60
2022-10-18T15:10:05.410Z,4.85
2022-10-18T15:12:37.107Z,3.25
2022-10-18T15:15:27.684Z,2.08
2022-10-18T15:17:56.786Z,2.22
2022-10-18T15:20:32.181Z,4.43
2022-10-18T15:23:23.477Z,3.10
2022-10-18T15:25:53.352Z,4.30
2022-10-18T15:28:37.871Z,4.13
2022-10-18T15:31:07.218Z,4.72
2022-10-18T15:33:34.978Z,4.20
2022-10-18T15:36:11.495Z,6.40
2022-10-18T15:38:39.103Z,4.53
2022-10-18T15:41:39.615Z,4.82
2022-10-18T15:44:24.370Z,5.55
2022-10-18T15:47:21.817Z,5.68
2022-10-18T15:49:58.309Z,3.92
2022-10-18T15:52:39.500Z,2.20
2022-10-18T15:55:31.573Z,2.30
2022-10-18T15:58:06.401Z,1.98
2022-10-18T16:00:33.314Z,2.25
2022-10-18T16:03:00.148Z,3.40
2022-10-18T16:05:27.339Z,6.13
2022-10-18T16:07:54.484Z,3.65
2022-10-18T16:10:21.386Z,4.30
2022-10-18T16:12:48.380Z,3.42
2022-10-18T16:15:15.435Z,3.22
2022-10-18T16:17:42.355Z,3.30
2022-10-18T16:20:20.966Z,3.05
2022-10-18T16:22:48.068Z,2.97
2022-10-18T16:25:15.157Z,13.15
2022-10-18T16:27:42.056Z,3.00
2022-10-18T16:30:20.656Z,6.45
2022-10-18T16:32:48.968Z,3.80
2022-10-18T16:35:15.920Z,2.40
2022-10-18T16:37:43.375Z,3.08
2022-10-18T16:40:28.208Z,3.20
2022-10-18T16:42:55.080Z,3.97
2022-10-18T16:45:22.168Z,4.80
2022-10-18T16:47:49.013Z,5.75
2022-10-18T16:50:18.588Z,4.78
2022-10-18T16:52:45.572Z,4.13
2022-10-18T16:55:21.390Z,4.20
2022-10-18T16:57:49.055Z,3.85
2022-10-18T17:00:21.561Z,3.42
2022-10-18T17:02:49.893Z,4.95
2022-10-18T17:05:17.912Z,5.47
2022-10-18T17:07:45.575Z,4.90
2022-10-18T17:10:14.837Z,4.15
2022-10-18T17:12:42.155Z,4.97
2022-10-18T17:15:10.232Z,4.60
2022-10-18T17:17:37.940Z,4.95
2022-10-18T17:20:07.611Z,4.75
2022-10-18T17:22:34.970Z,4.25
2022-10-18T17:25:01.902Z,4.00
2022-10-18T17:27:28.968Z,4.13
2022-10-18T17:29:55.932Z,4.95
2022-10-18T17:32:22.909Z,4.60
2022-10-18T17:34:49.784Z,4.40
2022-10-18T17:37:16.655Z,4.38
2022-10-18T17:39:43.483Z,5.03
2022-10-18T17:42:10.340Z,8.40
2022-10-18T17:44:37.357Z,11.75
2022-10-18T17:47:04.219Z,10.38
2022-10-18T17:49:31.263Z,9.82
2022-10-18T17:51:58.097Z,9.77
2022-10-18T17:54:25.121Z,7.38
2022-10-18T17:56:53.922Z,8.20
2022-10-18T17:59:21.522Z,8.63
2022-10-18T18:01:48.593Z,7.47
2022-10-18T18:04:17.148Z,6.88
2022-10-18T18:06:45.548Z,5.15
2022-10-18T18:09:15.192Z,4.75
2022-10-18T18:11:44.069Z,4.18
2022-10-18T18:14:11.870Z,6.53
2022-10-18T18:16:42.182Z,10.23
2022-10-18T18:19:10.273Z,8.35
2022-10-18T18:21:41.080Z,8.27
2022-10-18T18:24:10.138Z,8.25
2022-10-18T18:26:38.579Z,7.78
2022-10-18T18:29:05.750Z,6.57
2022-10-18T18:31:38.759Z,6.03
2022-10-18T18:34:09.702Z,7.20
2022-10-18T18:36:36.571Z,5.57
2022-10-18T18:39:05.706Z,5.53
2022-10-18T18:41:33.317Z,5.80
2022-10-18T18:44:04.245Z,5.05
2022-10-18T18:46:36.688Z,4.90
2022-10-18T18:49:04.718Z,5.95
2022-10-18T18:51:33.247Z,6.10
2022-10-18T18:54:00.767Z,6.30
2022-10-18T18:56:29.183Z,5.15
2022-10-18T18:58:58.743Z,5.10
2022-10-18T19:01:28.676Z,3.70
2022-10-18T19:03:57.402Z,3.88
2022-10-18T19:06:30.288Z,3.88
2022-10-18T19:09:03.099Z,4.07
2022-10-18T19:11:33.694Z,5.28
2022-10-18T19:14:01.500Z,5.07
2022-10-18T19:16:32.380Z,3.90
2022-10-18T19:19:10.578Z,5.57
2022-10-18T19:21:40.460Z,4.10
2022-10-18T19:24:08.090Z,21.23
2022-10-18T19:27:02.649Z,9.10
2022-10-18T19:29:34.460Z,8.80
2022-10-18T19:32:04.157Z,5.63
2022-10-18T19:34:32.200Z,4.18
2022-10-18T19:36:59.139Z,5.97
2022-10-18T19:39:35.352Z,3.38
2022-10-18T19:42:05.100Z,5.05
2022-10-18T19:44:34.237Z,4.60
2022-10-18T19:47:01.196Z,2.72
2022-10-18T19:49:28.847Z,3.30
2022-10-18T19:51:56.664Z,4.30
2022-10-18T19:54:24.428Z,3.85
2022-10-18T19:56:51.723Z,5.72
2022-10-18T19:59:18.639Z,3.83
2022-10-18T20:01:46.257Z,4.03
2022-10-18T20:04:13.682Z,4.80
2022-10-18T20:06:41.186Z,3.65
2022-10-18T20:09:11.568Z,5.78
2022-10-18T20:11:40.983Z,3.40
2022-10-18T20:14:09.703Z,6.13
2022-10-18T20:16:36.631Z,4.57
2022-10-18T20:19:07.342Z,3.20
2022-10-18T20:21:36.129Z,3.60
2022-10-18T20:24:04.421Z,6.07
2022-10-18T20:26:31.574Z,3.17
2022-10-18T20:28:59.891Z,3.22
2022-10-18T20:31:33.155Z,3.67
2022-10-18T20:34:02.757Z,6.30
2022-10-18T20:36:31.592Z,3.13
2022-10-18T20:38:59.626Z,5.00
2022-10-18T20:41:32.128Z,4.60
2022-10-18T20:44:01.692Z,2.63
2022-10-18T20:46:34.406Z,4.53
2022-10-18T20:49:02.184Z,3.70
2022-10-18T20:51:29.060Z,3.20
2022-10-18T20:53:55.985Z,5.55
2022-10-18T20:56:26.698Z,4.90
2022-10-18T20:58:57.006Z,2.63
2022-10-18T21:01:31.410Z,5.35
2022-10-18T21:04:01.024Z,3.45
2022-10-18T21:06:33.155Z,3.80
2022-10-18T21:09:02.414Z,3.45
2022-10-18T21:11:30.591Z,3.22
2022-10-18T21:14:02.157Z,3.08
2022-10-18T21:16:34.166Z,4.50
2022-10-18T21:21:32.398Z,3.00
2022-10-18T21:24:02.491Z,3.67
2022-10-18T21:26:32.376Z,3.60
2022-10-18T21:29:00.326Z,2.90
2022-10-18T21:31:32.989Z,2.72
2022-10-18T21:34:02.942Z,2.90
2022-10-18T21:36:35.634Z,3.50
2022-10-18T21:39:04.494Z,3.05
2022-10-18T21:41:31.915Z,2.92
2022-10-18T21:43:58.782Z,3.28
2022-10-18T21:46:27.062Z,3.15
2022-10-18T21:48:56.728Z,2.70
2022-10-18T21:51:25.915Z,2.67
2022-10-18T21:53:55.189Z,2.58
2022-10-18T21:56:25.638Z,2.83
2022-10-18T21:58:52.939Z,2.70
2022-10-18T22:01:25.587Z,3.00
2022-10-18T22:03:53.866Z,2.80
2022-10-18T22:06:22.149Z,3.30
2022-10-18T22:08:51.988Z,2.85
2022-10-18T22:11:21.493Z,3.58
2022-10-18T22:13:48.587Z,3.45
2022-10-18T22:16:17.069Z,3.88
2022-10-18T22:18:45.153Z,2.85
2022-10-18T22:21:14.549Z,2.60
2022-10-18T22:23:47.274Z,2.72
2022-10-18T22:26:16.620Z,2.88
2022-10-18T22:28:44.958Z,2.88
2022-10-18T22:31:21.180Z,2.55
2022-10-18T22:33:53.557Z,2.70
2022-10-18T22:36:20.542Z,2.55
2022-10-18T22:38:47.512Z,3.22
2022-10-18T22:41:14.448Z,2.80
2022-10-18T22:43:41.502Z,3.05
2022-10-18T22:46:10.870Z,2.70
2022-10-18T22:48:37.721Z,3.25
2022-10-18T22:51:05.508Z,3.08
2022-10-18T22:53:33.245Z,2.67
2022-10-18T22:56:00.261Z,3.22
2022-10-18T22:58:27.132Z,2.60
2022-10-18T23:01:12.159Z,3.03
2022-10-18T23:03:39.268Z,2.60
2022-10-18T23:06:17.245Z,2.88
2022-10-18T23:08:44.097Z,3.00
2022-10-18T23:11:11.004Z,2.47
2022-10-18T23:13:39.606Z,3.35
2022-10-18T23:16:07.343Z,2.97
2022-10-18T23:18:34.312Z,2.80
2022-10-18T23:21:09.393Z,2.90
2022-10-18T23:23:38.181Z,3.03
2022-10-18T23:26:07.713Z,2.80
2022-10-18T23:28:39.418Z,2.80
2022-10-18T23:31:14.666Z,2.53
2022-10-18T23:33:41.891Z,2.45
2022-10-18T23:36:09.592Z,2.50
2022-10-18T23:38:37.619Z,2.45
2022-10-18T23:41:08.843Z,2.35
2022-10-18T23:43:36.357Z,2.60
2022-10-18T23:46:03.609Z,2.47
2022-10-18T23:48:30.633Z,2.70
2022-10-18T23:50:57.595Z,2.60
2022-10-18T23:53:24.533Z,2.45
2022-10-18T23:55:54.485Z,2.70
2022-10-18T23:58:21.580Z,2.60
